sensor_id;sensor_type;location;lat;lon;timestamp;temperature;humidity
27900;DHT22;15243;50.726;7.080;2023-08-30T00:01:27;15.00;99.90
27900;DHT22;15243;50.726;7.080;2023-08-30T00:03:54;15.00;99.90
27900;DHT22;15243;50.726;7.080;2023-08-30T00:06:21;15.00;99.90
27900;DHT22;15243;50.726;7.080;2023-08-30T00:08:50;15.00;99.90
27900;DHT22;15243;50.726;7.080;2023-08-30T00:11:17;15.00;99.90
27900;DHT22;15243;50.726;7.080;2023-08-30T00:13:45;14.90;99.90
27900;DHT22;15243;50.726;7.080;2023-08-30T00:16:12;14.90;99.90
27900;DHT22;15243;50.726;7.080;2023-08-30T00:18:39;14.90;99.90
27900;DHT22;15243;50.726;7.080;2023-08-30T00:21:07;14.80;99.90
27900;DHT22;15243;50.726;7.080;2023-08-30T00:23:35;14.80;99.90
27900;DHT22;15243;50.726;7.080;2023-08-30T00:26:03;14.80;99.90
27900;DHT22;15243;50.726;7.080;2023-08-30T00:28:30;14.70;99.90
27900;DHT22;15243;50.726;7.080;2023-08-30T00:30:57;14.70;99.90
27900;DHT22;15243;50.726;7.080;2023-08-30T00:33:24;14.70;99.90
27900;DHT22;15243;50.726;7.080;2023-08-30T00:36:00;14.70;99.90
27900;DHT22;15243;50.726;7.080;2023-08-30T00:38:28;14.70;99.90
27900;DHT22;15243;50.726;7.080;2023-08-30T00:40:56;14.60;99.90
27900;DHT22;15243;50.726;7.080;2023-08-30T00:43:24;14.50;99.90
27900;DHT22;15243;50.726;7.080;2023-08-30T00:45:51;14.60;99.90
27900;DHT22;15243;50.726;7.080;2023-08-30T00:48:19;14.50;99.90
27900;DHT22;15243;50.726;7.080;2023-08-30T00:50:47;14.40;99.90
27900;DHT22;15243;50.726;7.080;2023-08-30T00:53:15;14.40;99.90
27900;DHT22;15243;50.726;7.080;2023-08-30T00:55:42;14.40;99.90
27900;DHT22;15243;50.726;7.080;2023-08-30T00:58:10;14.40;99.90
27900;DHT22;15243;50.726;7.080;2023-08-30T01:00:38;14.40;99.90
27900;DHT22;15243;50.726;7.080;2023-08-30T01:03:06;14.30;99.90
27900;DHT22;15243;50.726;7.080;2023-08-30T01:05:37;14.30;99.90
27900;DHT22;15243;50.726;7.080;2023-08-30T01:08:04;14.30;99.90
27900;DHT22;15243;50.726;7.080;2023-08-30T01:10:44;14.30;99.90
27900;DHT22;15243;50.726;7.080;2023-08-30T01:13:18;14.30;99.90
27900;DHT22;15243;50.726;7.080;2023-08-30T01:15:48;14.30;99.90
27900;DHT22;15243;50.726;7.080;2023-08-30T01:18:18;14.30;99.90
27900;DHT22;15243;50.726;7.080;2023-08-30T01:20:47;14.30;99.90
27900;DHT22;15243;50.726;7.080;2023-08-30T01:28:31;14.30;99.90
27900;DHT22;15243;50.726;7.080;2023-08-30T01:31:00;14.30;99.90
27900;DHT22;15243;50.726;7.080;2023-08-30T01:33:27;14.20;99.90
27900;DHT22;15243;50.726;7.080;2023-08-30T01:35:59;14.20;99.90
27900;DHT22;15243;50.726;7.080;2023-08-30T01:38:29;14.20;99.90
27900;DHT22;15243;50.726;7.080;2023-08-30T01:40:58;14.20;99.90
27900;DHT22;15243;50.726;7.080;2023-08-30T01:43:27;14.20;99.90
27900;DHT22;15243;50.726;7.080;2023-08-30T01:45:56;14.20;99.90
27900;DHT22;15243;50.726;7.080;2023-08-30T01:48:25;14.30;99.90
27900;DHT22;15243;50.726;7.080;2023-08-30T01:50:53;14.30;99.90
27900;DHT22;15243;50.726;7.080;2023-08-30T01:53:25;14.30;99.90
27900;DHT22;15243;50.726;7.080;2023-08-30T01:55:53;14.20;99.90
27900;DHT22;15243;50.726;7.080;2023-08-30T01:58:20;14.30;99.90
27900;DHT22;15243;50.726;7.080;2023-08-30T02:00:47;14.20;99.90
27900;DHT22;15243;50.726;7.080;2023-08-30T02:03:14;14.20;99.90
27900;DHT22;15243;50.726;7.080;2023-08-30T02:06:09;14.20;99.90
27900;DHT22;15243;50.726;7.080;2023-08-30T02:08:43;14.40;99.90
27900;DHT22;15243;50.726;7.080;2023-08-30T02:11:17;14.30;99.90
27900;DHT22;15243;50.726;7.080;2023-08-30T02:13:46;14.40;99.90
27900;DHT22;15243;50.726;7.080;2023-08-30T02:16:14;14.40;99.90
27900;DHT22;15243;50.726;7.080;2023-08-30T02:18:44;14.30;99.90
27900;DHT22;15243;50.726;7.080;2023-08-30T02:21:12;14.30;99.90
27900;DHT22;15243;50.726;7.080;2023-08-30T02:23:39;14.40;99.90
27900;DHT22;15243;50.726;7.080;2023-08-30T02:26:06;14.40;99.90
27900;DHT22;15243;50.726;7.080;2023-08-30T02:28:33;14.40;99.90
27900;DHT22;15243;50.726;7.080;2023-08-30T02:31:00;14.40;99.90
27900;DHT22;15243;50.726;7.080;2023-08-30T02:33:28;14.40;99.90
27900;DHT22;15243;50.726;7.080;2023-08-30T02:35:55;14.40;99.90
27900;DHT22;15243;50.726;7.080;2023-08-30T02:38:22;14.40;99.90
27900;DHT22;15243;50.726;7.080;2023-08-30T02:40:50;14.30;99.90
27900;DHT22;15243;50.726;7.080;2023-08-30T02:43:17;14.50;99.90
27900;DHT22;15243;50.726;7.080;2023-08-30T02:45:44;14.70;99.90
27900;DHT22;15243;50.726;7.080;2023-08-30T02:48:11;14.70;99.90
27900;DHT22;15243;50.726;7.080;2023-08-30T02:50:39;14.70;99.90
27900;DHT22;15243;50.726;7.080;2023-08-30T02:53:06;14.70;99.90
27900;DHT22;15243;50.726;7.080;2023-08-30T02:55:35;14.70;99.90
27900;DHT22;15243;50.726;7.080;2023-08-30T02:58:03;14.60;99.90
27900;DHT22;15243;50.726;7.080;2023-08-30T03:00:30;14.50;99.90
27900;DHT22;15243;50.726;7.080;2023-08-30T03:02:57;14.50;99.90
27900;DHT22;15243;50.726;7.080;2023-08-30T03:05:25;14.40;99.90
27900;DHT22;15243;50.726;7.080;2023-08-30T03:07:53;14.40;99.90
27900;DHT22;15243;50.726;7.080;2023-08-30T03:10:20;14.30;99.90
27900;DHT22;15243;50.726;7.080;2023-08-30T03:12:47;14.40;99.90
27900;DHT22;15243;50.726;7.080;2023-08-30T03:15:14;14.40;99.90
27900;DHT22;15243;50.726;7.080;2023-08-30T03:17:41;14.30;99.90
27900;DHT22;15243;50.726;7.080;2023-08-30T03:20:08;14.40;99.90
27900;DHT22;15243;50.726;7.080;2023-08-30T03:22:36;14.30;99.90
27900;DHT22;15243;50.726;7.080;2023-08-30T03:25:03;14.30;99.90
27900;DHT22;15243;50.726;7.080;2023-08-30T03:27:32;14.30;99.90
27900;DHT22;15243;50.726;7.080;2023-08-30T03:29:59;14.30;99.90
27900;DHT22;15243;50.726;7.080;2023-08-30T03:32:27;14.20;99.90
27900;DHT22;15243;50.726;7.080;2023-08-30T03:34:54;14.30;99.90
27900;DHT22;15243;50.726;7.080;2023-08-30T03:37:21;14.30;99.90
27900;DHT22;15243;50.726;7.080;2023-08-30T03:39:48;14.20;99.90
27900;DHT22;15243;50.726;7.080;2023-08-30T03:42:15;14.10;99.90
27900;DHT22;15243;50.726;7.080;2023-08-30T03:44:42;14.00;99.90
27900;DHT22;15243;50.726;7.080;2023-08-30T03:47:09;14.00;99.90
27900;DHT22;15243;50.726;7.080;2023-08-30T03:49:36;13.90;99.90
27900;DHT22;15243;50.726;7.080;2023-08-30T03:52:04;13.80;99.90
27900;DHT22;15243;50.726;7.080;2023-08-30T03:54:31;13.80;99.90
27900;DHT22;15243;50.726;7.080;2023-08-30T03:56:58;13.70;99.90
27900;DHT22;15243;50.726;7.080;2023-08-30T03:59:26;13.60;99.90
27900;DHT22;15243;50.726;7.080;2023-08-30T04:01:55;13.60;99.90
27900;DHT22;15243;50.726;7.080;2023-08-30T04:04:22;13.50;99.90
27900;DHT22;15243;50.726;7.080;2023-08-30T04:06:49;13.40;99.90
27900;DHT22;15243;50.726;7.080;2023-08-30T04:09:16;13.30;99.90
27900;DHT22;15243;50.726;7.080;2023-08-30T04:11:44;13.30;99.90
27900;DHT22;15243;50.726;7.080;2023-08-30T04:14:11;13.20;99.90
27900;DHT22;15243;50.726;7.080;2023-08-30T04:16:38;13.20;99.90
27900;DHT22;15243;50.726;7.080;2023-08-30T04:19:05;13.10;99.90
27900;DHT22;15243;50.726;7.080;2023-08-30T04:21:32;13.20;99.90
27900;DHT22;15243;50.726;7.080;2023-08-30T04:23:59;13.10;99.90
27900;DHT22;15243;50.726;7.080;2023-08-30T04:26:26;13.00;99.90
27900;DHT22;15243;50.726;7.080;2023-08-30T04:28:53;13.00;99.90
27900;DHT22;15243;50.726;7.080;2023-08-30T04:31:21;12.90;99.90
27900;DHT22;15243;50.726;7.080;2023-08-30T04:33:48;12.90;99.90
27900;DHT22;15243;50.726;7.080;2023-08-30T04:36:15;12.90;99.90
27900;DHT22;15243;50.726;7.080;2023-08-30T04:38:42;12.80;99.90
27900;DHT22;15243;50.726;7.080;2023-08-30T04:41:27;12.80;99.90
27900;DHT22;15243;50.726;7.080;2023-08-30T04:43:54;12.80;99.90
27900;DHT22;15243;50.726;7.080;2023-08-30T04:46:21;12.70;99.90
27900;DHT22;15243;50.726;7.080;2023-08-30T04:48:48;12.70;99.90
27900;DHT22;15243;50.726;7.080;2023-08-30T04:51:15;12.70;99.90
27900;DHT22;15243;50.726;7.080;2023-08-30T04:53:43;12.80;99.90
27900;DHT22;15243;50.726;7.080;2023-08-30T04:56:14;12.70;99.90
27900;DHT22;15243;50.726;7.080;2023-08-30T04:58:41;12.60;99.90
27900;DHT22;15243;50.726;7.080;2023-08-30T05:01:08;12.60;99.90
27900;DHT22;15243;50.726;7.080;2023-08-30T05:03:36;12.70;99.90
27900;DHT22;15243;50.726;7.080;2023-08-30T05:06:03;12.70;99.90
27900;DHT22;15243;50.726;7.080;2023-08-30T05:08:31;12.70;99.90
27900;DHT22;15243;50.726;7.080;2023-08-30T05:10:59;12.70;99.90
27900;DHT22;15243;50.726;7.080;2023-08-30T05:13:26;12.70;99.90
27900;DHT22;15243;50.726;7.080;2023-08-30T05:15:52;12.70;99.90
27900;DHT22;15243;50.726;7.080;2023-08-30T05:18:20;12.70;99.90
27900;DHT22;15243;50.726;7.080;2023-08-30T05:20:47;12.70;99.90
27900;DHT22;15243;50.726;7.080;2023-08-30T05:23:14;12.80;99.90
27900;DHT22;15243;50.726;7.080;2023-08-30T05:25:41;12.80;99.90
27900;DHT22;15243;50.726;7.080;2023-08-30T05:28:08;12.70;99.90
27900;DHT22;15243;50.726;7.080;2023-08-30T05:30:35;12.80;99.90
27900;DHT22;15243;50.726;7.080;2023-08-30T05:33:02;12.80;99.90
27900;DHT22;15243;50.726;7.080;2023-08-30T05:35:30;12.80;99.90
27900;DHT22;15243;50.726;7.080;2023-08-30T05:37:56;12.80;99.90
27900;DHT22;15243;50.726;7.080;2023-08-30T05:40:23;12.80;99.90
27900;DHT22;15243;50.726;7.080;2023-08-30T05:42:51;12.90;99.90
27900;DHT22;15243;50.726;7.080;2023-08-30T05:45:20;12.90;99.90
27900;DHT22;15243;50.726;7.080;2023-08-30T05:47:47;12.90;99.90
27900;DHT22;15243;50.726;7.080;2023-08-30T05:50:15;12.90;99.90
27900;DHT22;15243;50.726;7.080;2023-08-30T05:52:41;12.90;99.90
27900;DHT22;15243;50.726;7.080;2023-08-30T05:55:13;13.00;99.90
27900;DHT22;15243;50.726;7.080;2023-08-30T05:57:40;13.00;99.90
27900;DHT22;15243;50.726;7.080;2023-08-30T06:00:08;13.00;99.90
27900;DHT22;15243;50.726;7.080;2023-08-30T06:02:35;13.10;99.90
27900;DHT22;15243;50.726;7.080;2023-08-30T06:05:03;13.10;99.90
27900;DHT22;15243;50.726;7.080;2023-08-30T06:07:30;13.20;99.90
27900;DHT22;15243;50.726;7.080;2023-08-30T06:09:57;13.30;99.90
27900;DHT22;15243;50.726;7.080;2023-08-30T06:12:25;13.30;99.90
27900;DHT22;15243;50.726;7.080;2023-08-30T06:14:52;13.30;99.90
27900;DHT22;15243;50.726;7.080;2023-08-30T06:17:20;13.40;99.90
27900;DHT22;15243;50.726;7.080;2023-08-30T06:19:47;13.50;99.90
27900;DHT22;15243;50.726;7.080;2023-08-30T06:22:14;13.50;99.90
27900;DHT22;15243;50.726;7.080;2023-08-30T06:24:41;13.50;99.90
27900;DHT22;15243;50.726;7.080;2023-08-30T06:27:09;13.60;99.90
27900;DHT22;15243;50.726;7.080;2023-08-30T06:29:35;13.70;99.90
27900;DHT22;15243;50.726;7.080;2023-08-30T06:32:03;13.70;99.90
27900;DHT22;15243;50.726;7.080;2023-08-30T06:34:30;13.80;99.90
27900;DHT22;15243;50.726;7.080;2023-08-30T06:36:57;14.00;99.90
27900;DHT22;15243;50.726;7.080;2023-08-30T06:39:24;14.10;99.90
27900;DHT22;15243;50.726;7.080;2023-08-30T06:41:51;14.10;99.90
27900;DHT22;15243;50.726;7.080;2023-08-30T06:44:18;14.30;99.90
27900;DHT22;15243;50.726;7.080;2023-08-30T06:46:45;14.30;99.90
27900;DHT22;15243;50.726;7.080;2023-08-30T06:49:12;14.50;99.90
27900;DHT22;15243;50.726;7.080;2023-08-30T06:51:40;14.50;99.90
27900;DHT22;15243;50.726;7.080;2023-08-30T06:54:07;14.60;99.90
27900;DHT22;15243;50.726;7.080;2023-08-30T06:56:34;14.70;99.90
27900;DHT22;15243;50.726;7.080;2023-08-30T06:59:00;14.70;99.90
27900;DHT22;15243;50.726;7.080;2023-08-30T07:01:28;14.80;99.90
27900;DHT22;15243;50.726;7.080;2023-08-30T07:03:56;14.90;99.90
27900;DHT22;15243;50.726;7.080;2023-08-30T07:06:30;15.00;99.90
27900;DHT22;15243;50.726;7.080;2023-08-30T07:08:58;15.20;99.90
27900;DHT22;15243;50.726;7.080;2023-08-30T07:11:25;15.40;99.90
27900;DHT22;15243;50.726;7.080;2023-08-30T07:14:00;15.40;99.90
27900;DHT22;15243;50.726;7.080;2023-08-30T07:16:28;15.50;99.90
27900;DHT22;15243;50.726;7.080;2023-08-30T07:18:55;15.60;99.90
27900;DHT22;15243;50.726;7.080;2023-08-30T07:21:22;15.80;99.90
27900;DHT22;15243;50.726;7.080;2023-08-30T07:23:50;15.90;99.90
27900;DHT22;15243;50.726;7.080;2023-08-30T07:26:18;16.10;99.90
27900;DHT22;15243;50.726;7.080;2023-08-30T07:28:48;16.20;99.90
27900;DHT22;15243;50.726;7.080;2023-08-30T07:31:15;16.40;99.90
27900;DHT22;15243;50.726;7.080;2023-08-30T07:33:45;16.40;99.90
27900;DHT22;15243;50.726;7.080;2023-08-30T07:36:12;16.50;99.90
27900;DHT22;15243;50.726;7.080;2023-08-30T07:38:39;16.50;99.90
27900;DHT22;15243;50.726;7.080;2023-08-30T07:41:07;16.70;99.90
27900;DHT22;15243;50.726;7.080;2023-08-30T07:43:37;16.70;99.90
27900;DHT22;15243;50.726;7.080;2023-08-30T07:46:04;16.90;99.90
27900;DHT22;15243;50.726;7.080;2023-08-30T07:48:31;17.00;96.20
27900;DHT22;15243;50.726;7.080;2023-08-30T07:50:59;16.90;90.90
27900;DHT22;15243;50.726;7.080;2023-08-30T07:53:26;17.10;91.20
27900;DHT22;15243;50.726;7.080;2023-08-30T07:55:53;17.10;60.70
27900;DHT22;15243;50.726;7.080;2023-08-30T07:58:23;17.10;58.80
27900;DHT22;15243;50.726;7.080;2023-08-30T08:00:56;17.20;74.40
27900;DHT22;15243;50.726;7.080;2023-08-30T08:03:31;17.40;77.80
27900;DHT22;15243;50.726;7.080;2023-08-30T08:05:59;17.50;57.10
27900;DHT22;15243;50.726;7.080;2023-08-30T08:08:26;17.50;38.30
27900;DHT22;15243;50.726;7.080;2023-08-30T08:10:54;17.80;42.90
27900;DHT22;15243;50.726;7.080;2023-08-30T08:13:21;17.90;31.30
27900;DHT22;15243;50.726;7.080;2023-08-30T08:15:48;17.90;24.30
27900;DHT22;15243;50.726;7.080;2023-08-30T08:18:15;17.90;16.30
27900;DHT22;15243;50.726;7.080;2023-08-30T08:20:43;17.90;11.20
27900;DHT22;15243;50.726;7.080;2023-08-30T08:23:19;18.00;13.80
27900;DHT22;15243;50.726;7.080;2023-08-30T08:25:46;18.30;3.00
27900;DHT22;15243;50.726;7.080;2023-08-30T08:28:13;18.40;2.30
27900;DHT22;15243;50.726;7.080;2023-08-30T08:30:41;18.50;5.20
27900;DHT22;15243;50.726;7.080;2023-08-30T08:33:09;18.40;9.10
27900;DHT22;15243;50.726;7.080;2023-08-30T08:35:37;18.50;1.00
27900;DHT22;15243;50.726;7.080;2023-08-30T08:38:04;18.50;1.00
27900;DHT22;15243;50.726;7.080;2023-08-30T08:40:38;18.90;49.50
27900;DHT22;15243;50.726;7.080;2023-08-30T08:43:12;19.10;1.00
27900;DHT22;15243;50.726;7.080;2023-08-30T08:45:39;19.10;1.00
27900;DHT22;15243;50.726;7.080;2023-08-30T08:48:07;18.90;1.00
27900;DHT22;15243;50.726;7.080;2023-08-30T08:50:35;19.10;1.00
27900;DHT22;15243;50.726;7.080;2023-08-30T08:53:02;19.00;1.00
27900;DHT22;15243;50.726;7.080;2023-08-30T08:55:31;19.00;1.00
27900;DHT22;15243;50.726;7.080;2023-08-30T08:57:58;19.10;1.00
27900;DHT22;15243;50.726;7.080;2023-08-30T09:00:26;19.20;1.00
27900;DHT22;15243;50.726;7.080;2023-08-30T09:02:54;19.20;1.00
27900;DHT22;15243;50.726;7.080;2023-08-30T09:05:22;19.30;1.00
27900;DHT22;15243;50.726;7.080;2023-08-30T09:07:49;19.50;1.00
27900;DHT22;15243;50.726;7.080;2023-08-30T09:10:21;19.60;1.00
27900;DHT22;15243;50.726;7.080;2023-08-30T09:12:48;20.10;1.00
27900;DHT22;15243;50.726;7.080;2023-08-30T09:15:15;20.00;1.00
27900;DHT22;15243;50.726;7.080;2023-08-30T09:17:45;20.00;1.00
27900;DHT22;15243;50.726;7.080;2023-08-30T09:20:14;20.10;1.00
27900;DHT22;15243;50.726;7.080;2023-08-30T09:22:43;20.10;1.00
27900;DHT22;15243;50.726;7.080;2023-08-30T09:25:22;20.10;1.00
27900;DHT22;15243;50.726;7.080;2023-08-30T09:27:51;19.90;42.60
27900;DHT22;15243;50.726;7.080;2023-08-30T09:30:22;20.00;1.00
27900;DHT22;15243;50.726;7.080;2023-08-30T09:32:49;19.90;1.00
27900;DHT22;15243;50.726;7.080;2023-08-30T09:35:16;19.70;1.00
27900;DHT22;15243;50.726;7.080;2023-08-30T09:37:47;19.80;1.00
27900;DHT22;15243;50.726;7.080;2023-08-30T09:40:20;19.70;2.90
27900;DHT22;15243;50.726;7.080;2023-08-30T09:42:47;19.60;7.20
27900;DHT22;15243;50.726;7.080;2023-08-30T09:45:30;19.50;9.50
27900;DHT22;15243;50.726;7.080;2023-08-30T09:47:57;19.70;1.00
27900;DHT22;15243;50.726;7.080;2023-08-30T09:50:29;19.70;1.00
27900;DHT22;15243;50.726;7.080;2023-08-30T09:53:00;19.80;27.90
27900;DHT22;15243;50.726;7.080;2023-08-30T09:55:30;19.90;22.40
27900;DHT22;15243;50.726;7.080;2023-08-30T09:57:57;19.80;13.90
27900;DHT22;15243;50.726;7.080;2023-08-30T10:00:24;20.10;35.80
27900;DHT22;15243;50.726;7.080;2023-08-30T10:02:51;19.70;1.00
27900;DHT22;15243;50.726;7.080;2023-08-30T10:05:39;19.50;1.00
27900;DHT22;15243;50.726;7.080;2023-08-30T10:08:07;19.80;1.00
27900;DHT22;15243;50.726;7.080;2023-08-30T10:10:36;19.90;1.00
27900;DHT22;15243;50.726;7.080;2023-08-30T10:13:05;19.80;1.00
27900;DHT22;15243;50.726;7.080;2023-08-30T10:15:40;20.00;1.00
27900;DHT22;15243;50.726;7.080;2023-08-30T10:18:11;19.90;1.00
27900;DHT22;15243;50.726;7.080;2023-08-30T10:20:42;19.80;1.00
27900;DHT22;15243;50.726;7.080;2023-08-30T10:23:09;19.80;1.00
27900;DHT22;15243;50.726;7.080;2023-08-30T10:25:38;19.50;1.00
27900;DHT22;15243;50.726;7.080;2023-08-30T10:28:06;19.40;1.00
27900;DHT22;15243;50.726;7.080;2023-08-30T10:30:34;19.40;1.00
27900;DHT22;15243;50.726;7.080;2023-08-30T10:33:01;19.20;1.00
27900;DHT22;15243;50.726;7.080;2023-08-30T10:35:30;19.40;1.00
27900;DHT22;15243;50.726;7.080;2023-08-30T10:37:59;19.20;1.00
27900;DHT22;15243;50.726;7.080;2023-08-30T10:40:26;19.40;1.00
27900;DHT22;15243;50.726;7.080;2023-08-30T10:43:03;19.40;1.00
27900;DHT22;15243;50.726;7.080;2023-08-30T10:45:31;19.20;1.00
27900;DHT22;15243;50.726;7.080;2023-08-30T10:47:59;19.20;1.00
27900;DHT22;15243;50.726;7.080;2023-08-30T10:50:31;19.40;1.00
27900;DHT22;15243;50.726;7.080;2023-08-30T10:52:59;19.50;1.00
27900;DHT22;15243;50.726;7.080;2023-08-30T10:55:26;19.80;1.00
27900;DHT22;15243;50.726;7.080;2023-08-30T10:58:01;19.90;1.00
27900;DHT22;15243;50.726;7.080;2023-08-30T11:00:30;19.80;1.00
27900;DHT22;15243;50.726;7.080;2023-08-30T11:02:57;19.90;1.00
27900;DHT22;15243;50.726;7.080;2023-08-30T11:05:26;20.10;1.00
27900;DHT22;15243;50.726;7.080;2023-08-30T11:07:54;20.50;1.00
27900;DHT22;15243;50.726;7.080;2023-08-30T11:10:21;20.60;1.00
27900;DHT22;15243;50.726;7.080;2023-08-30T11:12:49;20.60;1.00
27900;DHT22;15243;50.726;7.080;2023-08-30T11:15:17;20.30;1.00
27900;DHT22;15243;50.726;7.080;2023-08-30T11:17:45;20.50;1.00
27900;DHT22;15243;50.726;7.080;2023-08-30T11:20:14;20.40;1.00
27900;DHT22;15243;50.726;7.080;2023-08-30T11:22:45;20.20;1.00
27900;DHT22;15243;50.726;7.080;2023-08-30T11:25:14;20.10;1.00
27900;DHT22;15243;50.726;7.080;2023-08-30T11:27:42;20.10;1.00
27900;DHT22;15243;50.726;7.080;2023-08-30T11:30:10;20.00;1.00
27900;DHT22;15243;50.726;7.080;2023-08-30T11:32:41;19.80;1.00
27900;DHT22;15243;50.726;7.080;2023-08-30T11:35:12;19.70;1.00
27900;DHT22;15243;50.726;7.080;2023-08-30T11:37:40;19.60;1.00
27900;DHT22;15243;50.726;7.080;2023-08-30T11:40:08;19.50;1.00
27900;DHT22;15243;50.726;7.080;2023-08-30T11:42:37;19.50;1.00
27900;DHT22;15243;50.726;7.080;2023-08-30T11:45:05;19.30;1.00
27900;DHT22;15243;50.726;7.080;2023-08-30T11:47:32;19.10;24.20
27900;DHT22;15243;50.726;7.080;2023-08-30T11:49:59;18.50;99.90
27900;DHT22;15243;50.726;7.080;2023-08-30T11:52:27;17.60;99.90
27900;DHT22;15243;50.726;7.080;2023-08-30T11:54:55;17.30;99.90
27900;DHT22;15243;50.726;7.080;2023-08-30T11:57:22;17.30;99.90
27900;DHT22;15243;50.726;7.080;2023-08-30T11:59:49;17.50;99.90
27900;DHT22;15243;50.726;7.080;2023-08-30T12:02:19;17.40;99.90
27900;DHT22;15243;50.726;7.080;2023-08-30T12:04:47;17.30;99.90
27900;DHT22;15243;50.726;7.080;2023-08-30T12:07:25;17.20;99.90
27900;DHT22;15243;50.726;7.080;2023-08-30T12:10:12;16.90;99.90
27900;DHT22;15243;50.726;7.080;2023-08-30T12:12:45;17.10;99.90
27900;DHT22;15243;50.726;7.080;2023-08-30T12:15:13;16.90;99.90
27900;DHT22;15243;50.726;7.080;2023-08-30T12:17:41;16.60;99.90
27900;DHT22;15243;50.726;7.080;2023-08-30T12:20:16;16.60;99.90
27900;DHT22;15243;50.726;7.080;2023-08-30T12:22:44;16.60;99.90
27900;DHT22;15243;50.726;7.080;2023-08-30T12:25:22;16.70;99.90
27900;DHT22;15243;50.726;7.080;2023-08-30T12:27:53;16.70;99.90
27900;DHT22;15243;50.726;7.080;2023-08-30T12:30:20;16.70;99.90
27900;DHT22;15243;50.726;7.080;2023-08-30T12:32:48;16.70;99.90
27900;DHT22;15243;50.726;7.080;2023-08-30T12:35:15;16.80;99.90
27900;DHT22;15243;50.726;7.080;2023-08-30T12:37:43;16.70;99.90
27900;DHT22;15243;50.726;7.080;2023-08-30T12:40:11;16.60;99.90
27900;DHT22;15243;50.726;7.080;2023-08-30T12:42:38;16.30;99.90
27900;DHT22;15243;50.726;7.080;2023-08-30T12:45:05;16.20;99.90
27900;DHT22;15243;50.726;7.080;2023-08-30T12:47:35;16.30;99.90
27900;DHT22;15243;50.726;7.080;2023-08-30T12:50:03;16.20;99.90
27900;DHT22;15243;50.726;7.080;2023-08-30T12:52:31;16.40;99.90
27900;DHT22;15243;50.726;7.080;2023-08-30T12:54:58;16.60;99.90
27900;DHT22;15243;50.726;7.080;2023-08-30T12:57:26;16.70;99.90
27900;DHT22;15243;50.726;7.080;2023-08-30T12:59:53;16.80;99.90
27900;DHT22;15243;50.726;7.080;2023-08-30T13:02:20;17.00;99.90
27900;DHT22;15243;50.726;7.080;2023-08-30T13:04:47;17.00;99.90
27900;DHT22;15243;50.726;7.080;2023-08-30T13:07:14;17.20;99.90
27900;DHT22;15243;50.726;7.080;2023-08-30T13:09:41;17.20;99.90
27900;DHT22;15243;50.726;7.080;2023-08-30T13:12:10;17.20;99.90
27900;DHT22;15243;50.726;7.080;2023-08-30T13:14:37;17.20;99.90
27900;DHT22;15243;50.726;7.080;2023-08-30T13:17:04;17.20;99.90
27900;DHT22;15243;50.726;7.080;2023-08-30T13:19:31;17.30;99.90
27900;DHT22;15243;50.726;7.080;2023-08-30T13:21:58;17.40;99.90
27900;DHT22;15243;50.726;7.080;2023-08-30T13:24:25;17.40;99.90
27900;DHT22;15243;50.726;7.080;2023-08-30T13:26:53;17.10;99.90
27900;DHT22;15243;50.726;7.080;2023-08-30T13:29:20;17.20;99.90
27900;DHT22;15243;50.726;7.080;2023-08-30T13:31:47;17.10;99.90
27900;DHT22;15243;50.726;7.080;2023-08-30T13:34:14;16.80;99.90
27900;DHT22;15243;50.726;7.080;2023-08-30T13:36:41;16.90;99.90
27900;DHT22;15243;50.726;7.080;2023-08-30T13:39:08;17.10;99.90
27900;DHT22;15243;50.726;7.080;2023-08-30T13:41:35;17.20;99.90
27900;DHT22;15243;50.726;7.080;2023-08-30T13:44:04;17.10;99.90
27900;DHT22;15243;50.726;7.080;2023-08-30T13:46:33;16.90;99.90
27900;DHT22;15243;50.726;7.080;2023-08-30T13:49:01;17.00;99.90
27900;DHT22;15243;50.726;7.080;2023-08-30T13:51:29;16.90;99.90
27900;DHT22;15243;50.726;7.080;2023-08-30T13:54:01;16.90;99.90
27900;DHT22;15243;50.726;7.080;2023-08-30T13:56:28;17.00;99.90
27900;DHT22;15243;50.726;7.080;2023-08-30T13:58:57;16.80;99.90
27900;DHT22;15243;50.726;7.080;2023-08-30T14:01:24;16.80;99.90
27900;DHT22;15243;50.726;7.080;2023-08-30T14:03:51;16.80;99.90
27900;DHT22;15243;50.726;7.080;2023-08-30T14:06:21;16.90;99.90
27900;DHT22;15243;50.726;7.080;2023-08-30T14:08:48;16.90;99.90
27900;DHT22;15243;50.726;7.080;2023-08-30T14:11:15;17.10;99.90
27900;DHT22;15243;50.726;7.080;2023-08-30T14:13:42;17.30;99.90
27900;DHT22;15243;50.726;7.080;2023-08-30T14:16:10;17.30;99.90
27900;DHT22;15243;50.726;7.080;2023-08-30T14:18:37;17.30;99.90
27900;DHT22;15243;50.726;7.080;2023-08-30T14:21:05;17.10;99.90
27900;DHT22;15243;50.726;7.080;2023-08-30T14:23:33;17.20;99.90
27900;DHT22;15243;50.726;7.080;2023-08-30T14:26:02;17.20;99.90
27900;DHT22;15243;50.726;7.080;2023-08-30T14:28:36;17.10;99.90
27900;DHT22;15243;50.726;7.080;2023-08-30T14:31:07;17.00;99.90
27900;DHT22;15243;50.726;7.080;2023-08-30T14:33:37;16.90;99.90
27900;DHT22;15243;50.726;7.080;2023-08-30T14:36:11;17.00;99.90
27900;DHT22;15243;50.726;7.080;2023-08-30T14:38:38;16.20;99.90
27900;DHT22;15243;50.726;7.080;2023-08-30T14:41:05;15.70;99.90
27900;DHT22;15243;50.726;7.080;2023-08-30T14:43:33;15.10;99.90
27900;DHT22;15243;50.726;7.080;2023-08-30T14:46:01;15.00;99.90
27900;DHT22;15243;50.726;7.080;2023-08-30T14:48:36;14.70;99.90
27900;DHT22;15243;50.726;7.080;2023-08-30T14:51:05;14.60;99.90
27900;DHT22;15243;50.726;7.080;2023-08-30T14:53:35;14.50;99.90
27900;DHT22;15243;50.726;7.080;2023-08-30T14:56:03;14.40;99.90
27900;DHT22;15243;50.726;7.080;2023-08-30T14:58:35;14.40;99.90
27900;DHT22;15243;50.726;7.080;2023-08-30T15:01:03;14.40;99.90
27900;DHT22;15243;50.726;7.080;2023-08-30T15:03:31;14.50;99.90
27900;DHT22;15243;50.726;7.080;2023-08-30T15:05:59;14.70;99.90
27900;DHT22;15243;50.726;7.080;2023-08-30T15:08:26;14.70;99.90
27900;DHT22;15243;50.726;7.080;2023-08-30T15:10:53;14.70;99.90
27900;DHT22;15243;50.726;7.080;2023-08-30T15:13:20;14.70;99.90
27900;DHT22;15243;50.726;7.080;2023-08-30T15:15:47;14.70;99.90
27900;DHT22;15243;50.726;7.080;2023-08-30T15:18:14;14.80;99.90
27900;DHT22;15243;50.726;7.080;2023-08-30T15:20:42;14.90;99.90
27900;DHT22;15243;50.726;7.080;2023-08-30T15:23:12;15.10;99.90
27900;DHT22;15243;50.726;7.080;2023-08-30T15:25:45;15.10;99.90
27900;DHT22;15243;50.726;7.080;2023-08-30T15:28:14;15.40;99.90
27900;DHT22;15243;50.726;7.080;2023-08-30T15:30:45;16.00;99.90
27900;DHT22;15243;50.726;7.080;2023-08-30T15:33:13;17.10;99.90
27900;DHT22;15243;50.726;7.080;2023-08-30T15:35:46;18.20;99.90
27900;DHT22;15243;50.726;7.080;2023-08-30T15:38:13;19.40;99.90
27900;DHT22;15243;50.726;7.080;2023-08-30T15:43:16;20.20;51.30
27900;DHT22;15243;50.726;7.080;2023-08-30T15:45:43;19.70;99.90
27900;DHT22;15243;50.726;7.080;2023-08-30T15:48:10;20.50;49.70
27900;DHT22;15243;50.726;7.080;2023-08-30T15:50:38;21.60;18.40